Impacts TAF Board
For situational awareness. Not to be used for flight planning purposes.
IDs:

KCVG - Cincinnati Intl, KY, US

Issued at 1129 UTC 23 Mar 2019
Updated at 1221 UTC 23 Mar 2019
Potential Impact None Slight Moderate High
Time<<24/01Z 24/02Z 24/03Z 24/04Z 24/05Z 24/06Z 24/07Z 24/08Z 24/09Z 24/10Z 24/11Z 24/12Z 24/13Z>>
Type PRVL PRVL PRVL PRVL PRVL PRVL PRVL PRVL PRVL PRVL PRVL PRVL PRVL
VIS >6 >6 >6 >6 >6 >6 >6 >6 >6 >6 >6 >6 >6
CIG -- -- -- -- -- -- 120 120 120 120 120 120 120
Cover SCT SCT SCT SCT SCT SCT BKN BKN BKN BKN BKN BKN BKN
FltCat VFR VFR VFR VFR VFR VFR VFR VFR VFR VFR VFR VFR VFR
WX -- -- -- -- -- -- -- -- -- -- -- -- --
WDir VRB VRB VRB VRB VRB VRB 140 140 140 140 140 140 140
WSpd 3 3 3 3 3 3 5 5 5 5 5 5 5
WGst -- -- -- -- -- -- -- -- -- -- -- -- --
Raw TAF
KCVG 231129Z 2312/2418 33005KT P6SM SKC
  FM232200 VRB03KT P6SM SCT250
  FM240700 14005KT P6SM BKN120
  FM241500 18008KT P6SM VCSH OVC060


METAR Board
Radar Display
Forecast Discussion
For situational awareness. Not to be used for flight planning purposes.